Time;durP1;ratioP1;P1;durP2;ratioP2;P2;SDS_P1;SDS_P2;PMS_P1;PMS_P2;Temp;Humidity;BMP_temperature;BMP_pressure;BME280_temperature;BME280_humidity;BME280_pressure;Samples;Min_cycle;Max_cycle;Signal;HPM_P1;HPM_P2
2023/01/24 00:02:25;;;;;;;26.95;15.60;;;3.90;99.90;;;;;;5096633;28;20030;-67
2023/01/24 00:04:50;;;;;;;26.63;16.55;;;3.90;99.90;;;;;;5096503;28;20118;-67
2023/01/24 00:07:16;;;;;;;25.08;15.25;;;3.90;99.90;;;;;;5096076;28;20063;-66
2023/01/24 00:09:41;;;;;;;25.08;15.98;;;3.90;99.90;;;;;;5096245;28;20031;-67
2023/01/24 00:12:07;;;;;;;24.95;15.27;;;3.90;99.90;;;;;;5095704;28;20032;-67
2023/01/24 00:14:33;;;;;;;25.13;15.38;;;4.00;99.90;;;;;;5096326;28;20467;-67
2023/01/24 00:16:59;;;;;;;27.30;16.52;;;3.90;99.90;;;;;;5096057;28;20073;-68
2023/01/24 00:19:24;;;;;;;26.67;16.02;;;3.90;99.90;;;;;;5096339;28;20024;-67
2023/01/24 00:21:50;;;;;;;24.38;14.70;;;3.90;99.90;;;;;;5096010;28;20027;-67
2023/01/24 00:24:16;;;;;;;24.23;15.48;;;4.00;99.90;;;;;;5095515;28;20036;-67
2023/01/24 00:26:41;;;;;;;28.25;16.65;;;4.00;99.90;;;;;;5096310;28;20024;-67
2023/01/24 00:29:07;;;;;;;24.63;15.40;;;3.90;99.90;;;;;;5095498;28;20028;-67
2023/01/24 00:31:33;;;;;;;25.85;15.70;;;3.90;99.90;;;;;;5095825;28;20031;-67
2023/01/24 00:33:59;;;;;;;26.35;14.85;;;3.90;99.90;;;;;;5096021;28;20028;-70
2023/01/24 00:36:25;;;;;;;26.40;15.15;;;3.90;99.90;;;;;;5095835;28;20350;-67
2023/01/24 00:38:50;;;;;;;25.17;14.45;;;3.90;99.90;;;;;;5094559;28;20028;-67
2023/01/24 00:41:16;;;;;;;25.80;15.35;;;3.90;99.90;;;;;;5095006;28;20087;-67
2023/01/24 00:43:42;;;;;;;26.15;14.98;;;3.90;99.90;;;;;;5095554;28;20535;-67
2023/01/24 00:46:08;;;;;;;26.65;15.70;;;3.90;99.90;;;;;;5094987;28;20063;-67
2023/01/24 00:48:35;;;;;;;26.70;15.65;;;3.80;99.90;;;;;;5095108;28;20461;-67
2023/01/24 00:51:00;;;;;;;25.67;14.70;;;3.90;99.90;;;;;;5095040;28;20046;-71
2023/01/24 00:53:26;;;;;;;26.67;15.43;;;3.90;99.90;;;;;;5095771;28;20142;-67
2023/01/24 00:55:54;;;;;;;27.55;15.25;;;3.90;99.90;;;;;;5095404;28;20157;-67
2023/01/24 00:58:21;;;;;;;26.30;15.80;;;3.90;99.90;;;;;;5094948;28;20031;-67
2023/01/24 01:00:46;;;;;;;23.02;13.75;;;3.90;99.90;;;;;;5095613;28;20070;-67
2023/01/24 01:03:19;;;;;;;27.40;16.15;;;3.90;99.90;;;;;;5094891;28;20023;-67
2023/01/24 01:05:44;;;;;;;23.30;14.25;;;3.90;99.90;;;;;;5073333;28;20054;-67
2023/01/24 01:08:11;;;;;;;25.58;14.80;;;3.90;99.90;;;;;;5075471;28;20029;-67
2023/01/24 01:10:37;;;;;;;25.23;15.18;;;3.90;99.90;;;;;;5075470;28;20047;-67
2023/01/24 01:13:03;;;;;;;25.90;14.63;;;3.90;99.90;;;;;;5074960;28;20032;-68
2023/01/24 01:15:29;;;;;;;20.55;14.10;;;3.90;99.90;;;;;;5073602;28;20024;-67
2023/01/24 01:17:56;;;;;;;28.73;16.05;;;3.90;99.90;;;;;;5074836;28;20044;-67
2023/01/24 01:20:22;;;;;;;23.85;14.35;;;3.90;99.90;;;;;;5074430;28;20032;-67
2023/01/24 01:22:47;;;;;;;25.13;14.77;;;3.90;99.90;;;;;;5074803;28;20017;-65
2023/01/24 01:25:13;;;;;;;25.70;15.63;;;3.90;99.90;;;;;;5074019;28;20040;-67
2023/01/24 01:27:39;;;;;;;26.88;15.25;;;3.80;99.90;;;;;;5056947;28;20066;-66
2023/01/24 01:30:05;;;;;;;31.05;15.95;;;3.80;99.90;;;;;;5074038;28;20032;-68
2023/01/24 01:32:31;;;;;;;24.45;15.48;;;3.80;99.90;;;;;;5074648;28;20461;-66
2023/01/24 01:34:56;;;;;;;24.02;14.48;;;3.80;99.90;;;;;;5074314;28;20127;-67
2023/01/24 01:37:22;;;;;;;24.15;15.65;;;3.80;99.90;;;;;;5074145;28;20119;-67
2023/01/24 01:39:48;;;;;;;23.75;14.75;;;3.80;99.90;;;;;;5074222;28;20087;-67
2023/01/24 01:42:14;;;;;;;25.73;15.07;;;3.80;99.90;;;;;;5080891;28;20035;-67
2023/01/24 01:44:42;;;;;;;22.92;15.43;;;3.80;99.90;;;;;;5095266;28;20035;-67
2023/01/24 01:47:26;;;;;;;25.58;15.20;;;3.80;99.90;;;;;;5094864;28;20115;-67
2023/01/24 01:49:56;;;;;;;24.15;14.52;;;3.80;99.90;;;;;;5096400;28;20035;-67
2023/01/24 01:52:26;;;;;;;26.40;16.70;;;3.80;99.90;;;;;;5094144;28;20046;-67
2023/01/24 01:54:56;;;;;;;27.92;16.25;;;3.90;99.90;;;;;;5094881;28;20039;-67
2023/01/24 01:57:29;;;;;;;26.55;16.20;;;3.80;99.90;;;;;;5093922;28;20028;-67
2023/01/24 02:00:14;;;;;;;25.75;15.38;;;3.80;99.90;;;;;;5094294;28;20028;-67
2023/01/24 02:02:44;;;;;;;26.20;15.88;;;3.80;99.90;;;;;;5094324;28;20024;-67
2023/01/24 02:05:13;;;;;;;25.55;16.25;;;3.90;99.90;;;;;;5096040;28;20071;-67
2023/01/24 02:08:05;;;;;;;23.50;15.02;;;3.90;99.90;;;;;;5094532;28;20032;-67
2023/01/24 02:11:37;;;;;;;24.08;15.07;;;3.90;99.90;;;;;;5095449;28;20373;-68
2023/01/24 02:13:18;;;;;;;26.98;14.77;;;3.90;99.90;;;;;;5094786;28;20064;-67
2023/01/24 02:16:04;;;;;;;23.67;15.25;;;3.90;99.90;;;;;;5095560;28;20511;-67
2023/01/24 02:18:32;;;;;;;26.70;15.00;;;3.90;99.90;;;;;;5093963;28;20418;-67
2023/01/24 02:20:58;;;;;;;24.23;14.63;;;3.90;99.90;;;;;;5093895;28;20031;-67
2023/01/24 02:23:45;;;;;;;26.05;15.57;;;3.90;99.90;;;;;;5093494;28;20060;-67
2023/01/24 02:26:15;;;;;;;24.52;15.00;;;3.90;99.90;;;;;;5093176;28;20024;-67
2023/01/24 02:29:03;;;;;;;22.02;13.80;;;3.90;99.90;;;;;;5093714;28;20028;-67
2023/01/24 02:31:29;;;;;;;22.02;13.98;;;3.90;99.90;;;;;;5092667;28;20384;-67
2023/01/24 02:33:54;;;;;;;28.10;14.98;;;3.90;99.90;;;;;;5093550;28;20074;-67
2023/01/24 02:36:36;;;;;;;24.10;14.98;;;3.90;99.90;;;;;;5093165;28;20385;-67
2023/01/24 02:39:10;;;;;;;23.52;14.05;;;3.90;99.90;;;;;;5093065;28;20024;-67
2023/01/24 02:41:52;;;;;;;24.02;14.52;;;3.90;99.90;;;;;;5093327;28;20069;-67
2023/01/24 02:44:22;;;;;;;24.67;13.90;;;3.90;99.90;;;;;;5093137;28;20107;-67
2023/01/24 02:46:48;;;;;;;24.38;14.38;;;3.90;99.90;;;;;;5093418;28;20051;-67
2023/01/24 02:49:14;;;;;;;25.75;15.20;;;3.90;99.90;;;;;;5092528;28;20476;-67
2023/01/24 02:54:23;;;;;;;25.48;15.55;;;3.90;99.90;;;;;;5092629;28;20062;-67
2023/01/24 02:59:33;;;;;;;26.02;16.05;;;3.90;99.90;;;;;;5094046;28;20031;-67
2023/01/24 03:01:59;;;;;;;23.45;14.65;;;3.90;99.90;;;;;;5100972;28;20024;-67
2023/01/24 03:04:24;;;;;;;25.25;14.80;;;3.90;99.90;;;;;;5087436;28;20032;-67
2023/01/24 03:06:50;;;;;;;23.17;14.75;;;3.80;99.90;;;;;;5077251;28;20488;-67
2023/01/24 03:09:19;;;;;;;25.58;15.95;;;3.80;99.90;;;;;;5072507;28;20498;-67
2023/01/24 03:11:49;;;;;;;24.92;15.23;;;3.80;99.90;;;;;;5072735;28;20032;-67
2023/01/24 03:36:31;;;;;;;26.45;15.45;;;3.80;99.90;;;;;;5071950;28;20035;-67
2023/01/24 03:41:40;;;;;;;24.30;14.55;;;3.80;99.90;;;;;;5072459;28;20078;-67
2023/01/24 03:44:06;;;;;;;24.88;15.52;;;3.80;99.90;;;;;;5072505;28;20032;-67
2023/01/24 03:46:32;;;;;;;26.17;16.13;;;3.80;99.90;;;;;;5071967;28;20063;-67
2023/01/24 03:48:57;;;;;;;23.73;14.77;;;3.80;99.90;;;;;;5073543;28;20069;-67
2023/01/24 03:54:07;;;;;;;22.92;14.43;;;3.90;99.90;;;;;;5092462;28;20542;-67
2023/01/24 03:56:33;;;;;;;22.33;14.73;;;3.80;99.90;;;;;;5092282;28;20408;-67
2023/01/24 03:58:58;;;;;;;26.25;15.40;;;3.90;99.90;;;;;;5092551;28;20024;-67
2023/01/24 04:01:24;;;;;;;24.50;15.80;;;3.90;99.90;;;;;;5092173;28;20024;-66
2023/01/24 04:03:50;;;;;;;23.63;16.10;;;3.80;99.90;;;;;;5092241;28;20036;-67
2023/01/24 04:06:17;;;;;;;25.58;15.85;;;3.80;99.90;;;;;;5091864;28;20108;-67
2023/01/24 04:08:42;;;;;;;26.58;17.10;;;3.80;99.90;;;;;;5092400;28;20362;-67
2023/01/24 04:11:08;;;;;;;29.63;16.45;;;3.80;99.90;;;;;;5092405;28;20095;-67
2023/01/24 04:13:34;;;;;;;28.05;16.38;;;3.80;99.90;;;;;;5091965;28;20348;-67
2023/01/24 04:15:59;;;;;;;29.50;16.27;;;3.80;99.90;;;;;;5092398;28;20377;-67
2023/01/24 04:18:25;;;;;;;28.15;16.13;;;3.80;99.90;;;;;;5091976;28;20103;-67
2023/01/24 04:20:51;;;;;;;27.60;17.63;;;3.70;99.90;;;;;;5093056;28;20027;-68
2023/01/24 04:23:16;;;;;;;28.23;16.40;;;3.80;99.90;;;;;;5094794;28;20032;-68
2023/01/24 04:25:42;;;;;;;32.58;18.38;;;3.80;99.90;;;;;;5097763;28;20024;-67
2023/01/24 04:28:07;;;;;;;24.73;16.15;;;3.80;99.90;;;;;;5097242;28;20027;-67
2023/01/24 04:30:33;;;;;;;29.10;16.85;;;3.80;99.90;;;;;;5097316;28;20028;-67
2023/01/24 04:32:59;;;;;;;29.88;16.67;;;3.80;99.90;;;;;;5096686;28;20028;-67
2023/01/24 04:35:27;;;;;;;29.83;17.88;;;3.80;99.90;;;;;;5095302;28;20028;-67
2023/01/24 04:37:56;;;;;;;30.13;17.95;;;3.70;99.90;;;;;;5095749;28;20020;-67
2023/01/24 04:40:22;;;;;;;30.13;17.95;;;3.70;99.90;;;;;;5095457;28;20052;-67
2023/01/24 04:42:47;;;;;;;28.15;16.90;;;3.70;99.90;;;;;;5095350;28;20027;-67
2023/01/24 04:45:13;;;;;;;27.02;16.92;;;3.80;99.90;;;;;;5095199;28;20115;-67
2023/01/24 04:47:39;;;;;;;33.17;18.15;;;3.80;99.90;;;;;;5095270;28;20057;-67
2023/01/24 04:50:06;;;;;;;31.70;18.55;;;3.70;99.90;;;;;;5095494;28;20114;-67
2023/01/24 04:52:31;;;;;;;29.92;18.40;;;3.80;99.90;;;;;;5095189;28;20036;-67
2023/01/24 04:54:57;;;;;;;31.10;18.15;;;3.80;99.90;;;;;;5095256;28;20586;-67
2023/01/24 04:57:23;;;;;;;30.48;18.63;;;3.70;99.90;;;;;;5093821;28;20039;-67
2023/01/24 04:59:48;;;;;;;30.23;18.38;;;3.80;99.90;;;;;;5095622;28;20020;-66
2023/01/24 05:02:14;;;;;;;31.35;18.65;;;3.80;99.90;;;;;;5095609;28;20055;-67
2023/01/24 05:04:40;;;;;;;33.88;19.00;;;3.80;99.90;;;;;;5094629;28;20064;-67
2023/01/24 05:07:06;;;;;;;31.25;18.08;;;3.70;99.90;;;;;;5075695;28;20029;-66
2023/01/24 05:09:32;;;;;;;32.13;18.92;;;3.70;99.90;;;;;;5074400;28;20491;-66
2023/01/24 05:11:57;;;;;;;34.10;19.60;;;3.70;99.90;;;;;;5074993;28;20453;-66
2023/01/24 05:14:23;;;;;;;32.38;19.15;;;3.70;99.90;;;;;;5075070;28;20036;-67
2023/01/24 05:16:49;;;;;;;35.20;19.33;;;3.70;99.90;;;;;;5075215;28;20032;-67
2023/01/24 05:19:14;;;;;;;32.95;20.38;;;3.70;99.90;;;;;;5074962;28;20024;-67
2023/01/24 05:21:40;;;;;;;34.05;19.08;;;3.70;99.90;;;;;;5074710;28;20055;-67
2023/01/24 05:24:06;;;;;;;32.63;19.30;;;3.60;99.90;;;;;;5074238;28;20036;-67
2023/01/24 05:26:31;;;;;;;31.58;20.00;;;3.70;99.90;;;;;;5074349;28;20020;-66
2023/01/24 05:28:57;;;;;;;35.95;20.35;;;3.70;99.90;;;;;;5074792;28;20035;-66
2023/01/24 05:31:23;;;;;;;30.60;18.42;;;3.70;99.90;;;;;;5072980;28;20111;-67
2023/01/24 05:33:48;;;;;;;35.95;19.10;;;3.70;99.90;;;;;;5074338;28;20104;-67
2023/01/24 05:36:20;;;;;;;33.15;18.92;;;3.70;99.90;;;;;;5074486;28;20029;-67
2023/01/24 05:38:46;;;;;;;32.00;19.48;;;3.70;99.90;;;;;;5074069;28;20095;-67
2023/01/24 05:41:16;;;;;;;30.85;18.20;;;3.70;99.90;;;;;;5074731;28;20075;-67
2023/01/24 05:43:42;;;;;;;30.98;19.85;;;3.70;99.90;;;;;;5073981;28;20033;-66
2023/01/24 05:46:14;;;;;;;37.33;20.42;;;3.70;99.90;;;;;;5074177;28;20020;-67
2023/01/24 05:48:40;;;;;;;34.60;20.80;;;3.70;99.90;;;;;;5073882;28;20029;-67
2023/01/24 05:51:08;;;;;;;36.83;20.80;;;3.70;99.90;;;;;;5076135;28;20036;-66
2023/01/24 05:53:37;;;;;;;37.13;21.42;;;3.70;99.90;;;;;;5073787;28;20511;-68
2023/01/24 05:56:09;;;;;;;36.13;20.33;;;3.70;99.90;;;;;;5090523;28;20028;-67
2023/01/24 05:58:36;;;;;;;37.00;20.48;;;3.70;99.90;;;;;;5093316;28;20473;-67
2023/01/24 06:01:06;;;;;;;33.45;20.08;;;3.70;99.90;;;;;;5094221;28;20119;-67
2023/01/24 06:03:32;;;;;;;35.42;20.90;;;3.70;99.90;;;;;;5093789;28;20115;-66
2023/01/24 06:05:58;;;;;;;37.67;22.00;;;3.70;99.90;;;;;;5094281;28;20110;-67
2023/01/24 06:08:23;;;;;;;37.22;21.48;;;3.70;99.90;;;;;;5093351;28;20056;-70
2023/01/24 06:10:49;;;;;;;38.40;20.98;;;3.70;99.90;;;;;;5093954;28;20032;-67
2023/01/24 06:13:15;;;;;;;38.97;21.35;;;3.70;99.90;;;;;;5093692;28;20027;-66
2023/01/24 06:15:41;;;;;;;32.95;19.40;;;3.70;99.90;;;;;;5092190;28;20050;-68
2023/01/24 06:18:12;;;;;;;39.53;22.13;;;3.80;99.90;;;;;;5093859;28;20028;-67
2023/01/24 06:20:38;;;;;;;37.40;20.85;;;3.70;99.90;;;;;;5093533;28;20107;-66
2023/01/24 06:23:06;;;;;;;36.47;21.85;;;3.70;99.90;;;;;;5092557;28;20119;-66
2023/01/24 06:25:32;;;;;;;39.10;21.55;;;3.70;99.90;;;;;;5091984;28;20040;-68
2023/01/24 06:27:58;;;;;;;37.95;22.52;;;3.70;99.90;;;;;;5093327;28;20369;-66
2023/01/24 06:30:24;;;;;;;38.50;21.95;;;3.70;99.90;;;;;;5093329;28;20035;-67
2023/01/24 06:33:02;;;;;;;40.10;21.88;;;3.70;99.90;;;;;;5093568;28;20020;-65
2023/01/24 06:35:37;;;;;;;39.70;21.88;;;3.70;99.90;;;;;;5093215;28;20532;-66
2023/01/24 06:38:02;;;;;;;41.08;23.65;;;3.80;99.90;;;;;;5093529;28;20091;-67
2023/01/24 06:40:30;;;;;;;41.28;24.02;;;3.80;99.90;;;;;;5092553;28;20131;-67
2023/01/24 06:42:56;;;;;;;38.00;21.85;;;3.70;99.90;;;;;;5093605;28;20032;-67
2023/01/24 06:45:22;;;;;;;36.67;21.77;;;3.70;99.90;;;;;;5093259;28;20059;-67
2023/01/24 06:47:48;;;;;;;41.60;23.45;;;3.70;99.90;;;;;;5092635;28;20028;-67
2023/01/24 06:50:19;;;;;;;37.83;21.70;;;3.70;99.90;;;;;;5093255;28;20035;-67
2023/01/24 06:52:46;;;;;;;42.90;23.10;;;3.70;99.90;;;;;;5092822;28;20061;-67
2023/01/24 06:55:12;;;;;;;43.25;22.95;;;3.70;99.90;;;;;;5093422;28;20031;-66
2023/01/24 06:57:37;;;;;;;39.45;22.05;;;3.70;99.90;;;;;;5092311;28;20028;-67
2023/01/24 07:00:04;;;;;;;37.92;21.40;;;3.70;99.90;;;;;;5073989;28;20036;-67
2023/01/24 07:02:30;;;;;;;41.22;22.17;;;3.70;99.90;;;;;;5072377;28;20449;-67
2023/01/24 07:04:55;;;;;;;40.55;22.65;;;3.70;99.90;;;;;;5072749;28;20081;-67
2023/01/24 07:07:21;;;;;;;40.33;22.25;;;3.70;99.90;;;;;;5072685;28;20103;-66
2023/01/24 07:09:47;;;;;;;39.17;21.23;;;3.70;99.90;;;;;;5072036;28;20346;-68
2023/01/24 07:12:12;;;;;;;45.15;23.38;;;3.70;99.90;;;;;;5072462;28;20123;-67
2023/01/24 07:14:38;;;;;;;39.80;21.58;;;3.70;99.90;;;;;;5072092;28;20032;-67
2023/01/24 07:17:04;;;;;;;40.13;21.92;;;3.70;99.90;;;;;;5072481;28;20040;-67
2023/01/24 07:19:30;;;;;;;43.53;22.60;;;3.70;99.90;;;;;;5072318;28;20029;-68
2023/01/24 07:21:56;;;;;;;41.53;22.45;;;3.70;99.90;;;;;;5072427;28;20050;-66
2023/01/24 07:24:25;;;;;;;46.80;25.10;;;3.70;99.90;;;;;;5071448;28;20461;-67
2023/01/24 07:26:51;;;;;;;43.83;24.23;;;3.70;99.90;;;;;;5072305;28;20435;-67
2023/01/24 07:29:18;;;;;;;46.63;23.30;;;3.60;99.90;;;;;;5072680;28;20043;-67
2023/01/24 07:31:44;;;;;;;46.15;24.08;;;3.70;99.90;;;;;;5072295;28;20033;-68
2023/01/24 07:34:10;;;;;;;39.92;22.33;;;3.70;99.90;;;;;;5072374;28;20081;-67
2023/01/24 07:36:35;;;;;;;44.50;22.85;;;3.70;99.90;;;;;;5071624;28;20080;-68
2023/01/24 07:39:01;;;;;;;44.50;22.55;;;3.70;99.90;;;;;;5075057;28;20214;-68
2023/01/24 07:41:26;;;;;;;44.42;24.55;;;3.70;99.90;;;;;;5072834;28;20036;-67
2023/01/24 07:43:53;;;;;;;41.00;23.00;;;3.70;99.90;;;;;;5072056;28;20032;-66
2023/01/24 07:46:19;;;;;;;40.80;23.10;;;3.80;99.90;;;;;;5072137;28;20449;-67
2023/01/24 07:48:45;;;;;;;40.53;22.17;;;3.80;99.90;;;;;;5072071;28;20033;-66
2023/01/24 07:51:11;;;;;;;45.58;23.45;;;3.80;99.90;;;;;;5072302;28;20028;-66
2023/01/24 07:53:36;;;;;;;44.05;24.02;;;3.80;99.90;;;;;;5072277;28;20035;-66
2023/01/24 07:56:03;;;;;;;40.88;23.65;;;3.80;99.90;;;;;;5073238;28;20028;-67
2023/01/24 07:58:30;;;;;;;42.78;23.25;;;3.70;99.90;;;;;;5073613;28;20025;-66
2023/01/24 08:00:56;;;;;;;40.97;22.52;;;3.70;99.90;;;;;;5074038;28;20036;-68
2023/01/24 08:03:21;;;;;;;45.08;23.40;;;3.80;99.90;;;;;;5076001;28;20381;-67
2023/01/24 08:05:47;;;;;;;45.95;24.35;;;3.70;99.90;;;;;;5075639;28;20024;-67
2023/01/24 08:08:13;;;;;;;44.20;23.65;;;3.70;99.90;;;;;;5075065;28;20453;-67
2023/01/24 08:10:38;;;;;;;43.40;24.52;;;3.80;99.90;;;;;;5075524;28;20067;-67
2023/01/24 08:13:04;;;;;;;46.88;25.00;;;3.80;99.90;;;;;;5075643;28;20020;-67
2023/01/24 08:15:30;;;;;;;44.33;23.55;;;3.80;99.90;;;;;;5076187;28;20024;-67
2023/01/24 08:17:56;;;;;;;44.53;24.23;;;3.80;99.90;;;;;;5075042;28;20032;-66
2023/01/24 08:20:21;;;;;;;41.85;24.45;;;3.80;99.90;;;;;;5074358;28;20027;-67
2023/01/24 08:22:47;;;;;;;44.17;24.25;;;3.80;99.90;;;;;;5075233;28;20070;-67
2023/01/24 08:25:13;;;;;;;49.55;26.73;;;3.90;99.90;;;;;;5075358;28;20082;-68
2023/01/24 08:27:42;;;;;;;44.53;24.42;;;3.80;99.90;;;;;;5075044;28;20115;-67
2023/01/24 08:30:11;;;;;;;46.10;24.55;;;3.80;99.90;;;;;;5075436;28;20028;-67
2023/01/24 08:32:37;;;;;;;45.80;24.70;;;3.80;99.90;;;;;;5075099;28;20021;-68
2023/01/24 08:35:04;;;;;;;42.72;23.33;;;3.80;99.90;;;;;;5075702;28;20036;-67
2023/01/24 08:37:30;;;;;;;45.35;24.08;;;3.90;99.90;;;;;;5075503;28;20028;-66
2023/01/24 08:39:56;;;;;;;43.67;24.25;;;3.90;99.90;;;;;;5074478;28;20051;-67
2023/01/24 08:42:23;;;;;;;44.75;23.77;;;3.90;99.90;;;;;;5075434;28;20028;-67
2023/01/24 08:44:49;;;;;;;41.72;23.33;;;3.90;99.90;;;;;;5074861;28;20082;-68
2023/01/24 08:47:15;;;;;;;41.33;23.63;;;3.90;99.90;;;;;;5075335;28;20427;-66
2023/01/24 08:49:40;;;;;;;45.33;24.35;;;4.00;99.90;;;;;;5074854;28;20028;-67
2023/01/24 08:52:06;;;;;;;43.70;24.00;;;3.90;99.90;;;;;;5073541;28;20058;-68
2023/01/24 08:54:32;;;;;;;45.25;23.90;;;3.90;99.90;;;;;;5075227;28;20032;-67
2023/01/24 08:56:58;;;;;;;47.15;25.48;;;3.90;99.90;;;;;;5074743;28;20035;-67
2023/01/24 08:59:24;;;;;;;44.65;25.38;;;3.90;99.90;;;;;;5075246;28;20040;-67
2023/01/24 09:01:50;;;;;;;48.90;25.48;;;3.90;99.90;;;;;;5074663;28;20024;-67
2023/01/24 09:04:15;;;;;;;44.78;24.40;;;3.80;99.90;;;;;;5074944;28;20074;-67
2023/01/24 09:06:41;;;;;;;47.63;25.98;;;3.80;99.90;;;;;;5073313;28;20025;-67
2023/01/24 09:09:07;;;;;;;50.10;26.67;;;3.80;99.90;;;;;;5074989;28;20020;-67
2023/01/24 09:11:32;;;;;;;45.25;25.23;;;3.80;99.90;;;;;;5075200;28;20534;-67
2023/01/24 09:13:58;;;;;;;48.65;25.73;;;3.80;99.90;;;;;;5074379;28;20427;-66
2023/01/24 09:16:24;;;;;;;47.90;25.67;;;3.90;99.90;;;;;;5073456;28;20032;-67
2023/01/24 09:18:51;;;;;;;48.10;27.10;;;3.80;99.90;;;;;;5074345;28;20137;-66
2023/01/24 09:21:17;;;;;;;47.50;24.15;;;3.90;99.90;;;;;;5074579;28;20039;-68
2023/01/24 09:23:43;;;;;;;44.85;24.65;;;3.90;99.90;;;;;;5073957;28;20081;-67
2023/01/24 09:26:09;;;;;;;47.75;24.90;;;3.90;99.90;;;;;;5074685;28;20017;-67
2023/01/24 09:28:35;;;;;;;46.83;25.33;;;3.90;99.90;;;;;;5074461;28;20113;-67
2023/01/24 09:31:01;;;;;;;47.25;26.67;;;3.90;99.90;;;;;;5073876;28;20516;-66
2023/01/24 09:33:28;;;;;;;49.95;24.35;;;3.90;99.90;;;;;;5074494;28;20053;-67
2023/01/24 09:35:59;;;;;;;46.05;25.65;;;3.90;99.90;;;;;;5074073;28;20028;-66
2023/01/24 09:38:26;;;;;;;;;;;3.90;99.90;;;;;;5074834;28;20469;-66
2023/01/24 09:41:06;;;;;;;46.47;25.55;;;3.90;99.90;;;;;;5074183;28;19994;-68
2023/01/24 09:43:46;;;;;;;42.85;24.60;;;3.90;99.90;;;;;;5074031;28;20027;-68
2023/01/24 09:46:42;;;;;;;42.93;24.13;;;3.90;99.90;;;;;;5073251;28;20134;-66
2023/01/24 09:49:10;;;;;;;42.95;24.15;;;3.90;99.90;;;;;;5074344;28;20469;-67
2023/01/24 09:51:46;;;;;;;47.30;25.88;;;3.90;99.90;;;;;;5074065;28;20106;-68
2023/01/24 09:54:31;;;;;;;45.05;25.45;;;3.90;99.90;;;;;;5072835;28;20538;-67
2023/01/24 09:56:57;;;;;;;52.45;26.20;;;3.90;99.90;;;;;;5073401;28;20020;-67
2023/01/24 09:59:58;;;;;;;48.40;24.90;;;3.90;99.90;;;;;;5074258;28;20033;-67
2023/01/24 10:02:27;;;;;;;45.53;25.40;;;3.90;99.90;;;;;;5080168;28;20044;-67
2023/01/24 10:04:53;;;;;;;44.25;23.73;;;3.90;99.90;;;;;;5098037;28;20044;-68
2023/01/24 10:07:31;;;;;;;45.45;26.40;;;3.90;99.90;;;;;;5094167;28;20032;-68
2023/01/24 10:10:31;;;;;;;45.53;25.02;;;3.90;99.90;;;;;;5093661;28;20111;-67
2023/01/24 10:13:24;;;;;;;39.33;22.27;;;3.80;99.90;;;;;;5085018;28;20040;-67
2023/01/24 10:16:44;;;;;;;40.05;23.35;;;3.90;99.90;;;;;;5092246;28;20035;-68
2023/01/24 10:19:49;;;;;;;43.17;23.83;;;3.90;99.90;;;;;;5031328;28;20555;-67
2023/01/24 10:22:15;;;;;;;39.63;21.75;;;4.00;99.90;;;;;;5094088;28;20036;-67
2023/01/24 10:24:49;;;;;;;44.90;25.02;;;4.00;99.90;;;;;;5092149;28;20042;-67
2023/01/24 10:27:36;;;;;;;42.08;23.67;;;4.00;99.90;;;;;;5094657;28;20028;-67
2023/01/24 10:30:31;;;;;;;39.38;23.70;;;4.00;99.90;;;;;;5095520;28;20503;-66
2023/01/24 10:33:01;;;;;;;39.90;22.05;;;4.00;99.90;;;;;;5085512;28;20464;-68
2023/01/24 10:35:37;;;;;;;40.53;23.05;;;4.00;99.90;;;;;;5093204;28;20373;-66
2023/01/24 10:38:10;;;;;;;45.08;25.30;;;4.00;99.90;;;;;;5092387;28;20222;-66
2023/01/24 10:40:50;;;;;;;43.20;24.55;;;4.00;99.90;;;;;;5093005;28;20048;-67
2023/01/24 10:43:17;;;;;;;45.00;24.00;;;4.00;99.90;;;;;;5092184;28;20024;-68
2023/01/24 10:45:49;;;;;;;43.97;23.00;;;4.10;99.90;;;;;;5072373;28;20040;-70
2023/01/24 10:48:41;;;;;;;40.08;22.85;;;4.10;99.90;;;;;;5072735;28;20031;-67
2023/01/24 10:51:25;;;;;;;40.00;22.52;;;4.00;99.90;;;;;;5066067;28;20033;-66
2023/01/24 10:53:54;;;;;;;43.85;23.23;;;4.10;99.90;;;;;;5072594;28;20060;-66
2023/01/24 10:56:21;;;;;;;45.58;24.85;;;4.10;99.90;;;;;;5072550;28;20074;-67
2023/01/24 10:58:57;;;;;;;41.20;23.77;;;4.10;99.90;;;;;;5072315;28;20021;-67
2023/01/24 11:01:31;;;;;;;40.13;23.13;;;4.10;99.90;;;;;;5072327;28;20032;-67
2023/01/24 11:03:57;;;;;;;40.13;23.10;;;4.10;99.90;;;;;;5072011;28;20040;-67
2023/01/24 11:06:36;;;;;;;42.38;24.63;;;4.10;99.90;;;;;;5070870;28;20457;-67
2023/01/24 11:09:12;;;;;;;44.30;24.05;;;4.10;99.90;;;;;;5072203;28;20025;-67
2023/01/24 11:11:45;;;;;;;40.55;22.35;;;4.10;99.90;;;;;;5072305;28;20028;-67
2023/01/24 11:14:25;;;;;;;35.78;21.55;;;4.10;99.90;;;;;;5072496;28;20032;-67
2023/01/24 11:16:55;;;;;;;35.92;20.90;;;4.10;99.90;;;;;;5071918;28;20055;-67
2023/01/24 11:19:26;;;;;;;37.15;22.17;;;4.10;99.90;;;;;;5072245;28;20073;-67
2023/01/24 11:21:58;;;;;;;35.42;20.48;;;4.10;99.90;;;;;;5071877;28;20461;-67
2023/01/24 11:24:25;;;;;;;33.53;19.00;;;4.10;99.90;;;;;;5072318;28;20040;-67
2023/01/24 11:26:57;;;;;;;38.97;21.45;;;4.00;99.90;;;;;;5071508;28;20035;-67
2023/01/24 11:29:24;;;;;;;32.35;19.92;;;4.10;99.90;;;;;;5072160;28;20171;-67
2023/01/24 11:32:19;;;;;;;34.33;21.35;;;4.00;99.90;;;;;;5071707;28;20144;-67
2023/01/24 11:34:56;;;;;;;34.15;20.27;;;4.10;99.90;;;;;;5065823;28;20051;-67
2023/01/24 11:37:31;;;;;;;36.20;20.73;;;4.10;99.90;;;;;;5076242;28;20103;-68
2023/01/24 11:40:15;;;;;;;34.20;20.70;;;4.10;99.90;;;;;;5075666;28;20385;-67
2023/01/24 11:43:08;;;;;;;33.10;20.65;;;4.10;99.90;;;;;;5076276;28;20024;-68
2023/01/24 11:45:55;;;;;;;36.33;20.33;;;4.20;99.90;;;;;;5074969;28;20437;-67
2023/01/24 11:48:22;;;;;;;34.22;20.45;;;4.20;99.90;;;;;;5076184;28;20032;-66
2023/01/24 11:51:06;;;;;;;34.85;20.15;;;4.20;99.90;;;;;;5075610;28;20065;-72
2023/01/24 11:53:50;;;;;;;33.20;19.45;;;4.10;99.90;;;;;;5076138;28;20028;-66
2023/01/24 11:56:35;;;;;;;33.55;20.10;;;4.10;99.90;;;;;;5076307;28;20036;-68
2023/01/24 11:59:32;;;;;;;36.75;21.65;;;4.10;99.90;;;;;;5075397;28;20028;-68
2023/01/24 12:02:00;;;;;;;34.05;19.05;;;4.10;99.90;;;;;;5075611;28;20021;-67
2023/01/24 12:04:50;;;;;;;32.95;18.80;;;4.10;99.90;;;;;;5075879;28;20110;-67
2023/01/24 12:07:47;;;;;;;30.08;19.42;;;4.10;99.90;;;;;;5075565;28;20024;-67
2023/01/24 12:10:28;;;;;;;28.27;17.92;;;4.10;99.90;;;;;;5082897;28;20421;-68
2023/01/24 12:13:16;;;;;;;29.67;18.00;;;4.10;99.90;;;;;;5095819;28;20056;-67
2023/01/24 12:16:23;;;;;;;29.95;17.83;;;4.10;99.90;;;;;;5095594;28;20167;-67
2023/01/24 12:19:00;;;;;;;33.33;20.40;;;4.10;99.90;;;;;;5078188;28;20051;-67
2023/01/24 12:21:26;;;;;;;34.70;19.50;;;4.10;99.90;;;;;;5095780;28;20116;-67
2023/01/24 12:24:03;;;;;;;34.15;18.38;;;4.10;99.90;;;;;;5095472;28;20107;-68
2023/01/24 12:26:38;;;;;;;34.50;18.77;;;4.10;99.90;;;;;;5095764;28;20058;-67
2023/01/24 12:29:12;;;;;;;35.97;20.00;;;4.10;99.90;;;;;;5095156;28;20081;-67
2023/01/24 12:31:58;;;;;;;33.55;18.80;;;4.10;99.90;;;;;;5095561;28;20030;-67
2023/01/24 12:34:39;;;;;;;34.35;20.17;;;4.10;99.90;;;;;;5095722;28;20471;-67
2023/01/24 12:37:11;;;;;;;27.43;17.03;;;4.10;99.90;;;;;;5095210;28;20389;-67
2023/01/24 12:39:52;;;;;;;28.77;18.13;;;4.20;99.90;;;;;;5095199;28;20655;-67
2023/01/24 12:42:23;;;;;;;30.90;18.40;;;4.10;99.90;;;;;;5073692;28;20124;-68
2023/01/24 12:44:52;;;;;;;;;;;4.20;99.90;;;;;;5075554;28;20037;-67
2023/01/24 12:47:44;;;;;;;29.63;18.05;;;4.10;99.90;;;;;;5074233;28;19918;-68
2023/01/24 12:50:22;;;;;;;28.17;18.05;;;4.10;99.90;;;;;;5074815;28;20477;-67
2023/01/24 12:53:00;;;;;;;30.00;16.80;;;4.10;99.90;;;;;;5074673;28;20393;-67
2023/01/24 12:55:47;;;;;;;30.80;18.48;;;4.10;99.90;;;;;;5074904;28;20029;-67
2023/01/24 12:58:34;;;;;;;28.20;17.38;;;4.10;99.90;;;;;;5074384;28;20029;-68
2023/01/24 13:01:21;;;;;;;27.88;16.88;;;4.10;99.90;;;;;;5074113;28;20064;-67
2023/01/24 13:04:05;;;;;;;27.98;17.67;;;4.10;99.90;;;;;;5074950;28;20048;-67
2023/01/24 13:06:49;;;;;;;28.42;17.17;;;4.10;99.90;;;;;;5074950;28;20440;-67
2023/01/24 13:09:23;;;;;;;30.75;18.30;;;4.10;99.90;;;;;;5074494;28;20512;-66
2023/01/24 13:11:50;;;;;;;31.58;19.08;;;4.10;99.90;;;;;;5074661;28;20043;-66
2023/01/24 13:14:24;;;;;;;31.02;17.05;;;4.10;99.90;;;;;;5074249;28;20024;-68
2023/01/24 13:16:55;;;;;;;28.88;17.65;;;4.10;99.90;;;;;;5074638;28;20036;-67
2023/01/24 13:19:43;;;;;;;29.60;16.88;;;4.10;99.90;;;;;;5074514;28;20024;-68
2023/01/24 13:22:31;;;;;;;29.98;17.98;;;4.10;99.90;;;;;;5072799;28;20025;-67
2023/01/24 13:25:03;;;;;;;32.00;18.92;;;4.10;99.90;;;;;;5073451;28;20028;-68
2023/01/24 13:27:56;;;;;;;30.38;16.00;;;4.00;99.90;;;;;;5074134;28;20035;-67
2023/01/24 13:30:49;;;;;;;31.27;17.60;;;4.10;99.90;;;;;;5077253;28;20017;-67